sensor_id;sensor_type;location;lat;lon;timestamp;pressure;altitude;pressure_sealevel;temperature;humidity
67931;BME280;63902;52.000;5.954;2024-03-22T00:00:16;101692.00;;;10.28;89.03
67931;BME280;63902;52.000;5.954;2024-03-22T00:01:16;101700.72;;;10.32;89.06
67931;BME280;63902;52.000;5.954;2024-03-22T00:02:16;101688.47;;;10.28;89.26
67931;BME280;63902;52.000;5.954;2024-03-22T00:03:17;101697.13;;;10.35;89.66
67931;BME280;63902;52.000;5.954;2024-03-22T00:04:17;101701.50;;;10.36;90.12
67931;BME280;63902;52.000;5.954;2024-03-22T00:05:17;101701.50;;;10.36;89.85
67931;BME280;63902;52.000;5.954;2024-03-22T00:06:18;101696.22;;;10.36;89.47
67931;BME280;63902;52.000;5.954;2024-03-22T00:07:18;101695.31;;;10.37;89.63
67931;BME280;63902;52.000;5.954;2024-03-22T00:08:18;101691.81;;;10.35;89.50
67931;BME280;63902;52.000;5.954;2024-03-22T00:09:19;101697.03;;;10.39;89.66
67931;BME280;63902;52.000;5.954;2024-03-22T00:10:19;101689.94;;;10.40;89.73
67931;BME280;63902;52.000;5.954;2024-03-22T00:11:19;101682.84;;;10.40;89.83
67931;BME280;63902;52.000;5.954;2024-03-22T00:12:19;101687.19;;;10.43;89.53
67931;BME280;63902;52.000;5.954;2024-03-22T00:13:20;101681.06;;;10.41;89.48
67931;BME280;63902;52.000;5.954;2024-03-22T00:14:20;101668.81;;;10.35;89.97
67931;BME280;63902;52.000;5.954;2024-03-22T00:15:20;101686.28;;;10.44;89.95
67931;BME280;63902;52.000;5.954;2024-03-22T00:16:21;101660.78;;;10.38;89.35
67931;BME280;63902;52.000;5.954;2024-03-22T00:17:21;101672.94;;;10.47;89.24
67931;BME280;63902;52.000;5.954;2024-03-22T00:18:21;101669.47;;;10.45;89.57
67931;BME280;63902;52.000;5.954;2024-03-22T00:19:22;101675.56;;;10.48;90.29
67931;BME280;63902;52.000;5.954;2024-03-22T00:20:22;101661.56;;;10.42;89.71
67931;BME280;63902;52.000;5.954;2024-03-22T00:21:23;101672.91;;;10.48;90.44
67931;BME280;63902;52.000;5.954;2024-03-22T00:22:23;101674.59;;;10.51;90.98
67931;BME280;63902;52.000;5.954;2024-03-22T00:23:23;101664.84;;;10.51;90.97
67931;BME280;63902;52.000;5.954;2024-03-22T00:24:23;101671.03;;;10.52;90.40
67931;BME280;63902;52.000;5.954;2024-03-22T00:25:24;101647.31;;;10.47;90.45
67931;BME280;63902;52.000;5.954;2024-03-22T00:26:24;101663.03;;;10.53;91.10
67931;BME280;63902;52.000;5.954;2024-03-22T00:27:24;101664.75;;;10.56;91.80
67931;BME280;63902;52.000;5.954;2024-03-22T00:28:25;101655.00;;;10.57;91.02
67931;BME280;63902;52.000;5.954;2024-03-22T00:29:25;101639.25;;;10.50;90.95
67931;BME280;63902;52.000;5.954;2024-03-22T00:30:25;101649.69;;;10.57;90.60
67931;BME280;63902;52.000;5.954;2024-03-22T00:31:25;101645.25;;;10.57;90.37
67931;BME280;63902;52.000;5.954;2024-03-22T00:32:26;101648.75;;;10.58;90.96
67931;BME280;63902;52.000;5.954;2024-03-22T00:33:26;101652.25;;;10.60;90.24
67931;BME280;63902;52.000;5.954;2024-03-22T00:34:26;101646.88;;;10.61;90.51
67931;BME280;63902;52.000;5.954;2024-03-22T00:35:27;101650.38;;;10.63;90.52
67931;BME280;63902;52.000;5.954;2024-03-22T00:36:27;101645.06;;;10.63;91.26
67931;BME280;63902;52.000;5.954;2024-03-22T00:37:27;101636.25;;;10.63;91.27
67931;BME280;63902;52.000;5.954;2024-03-22T00:38:28;101634.44;;;10.65;90.99
67931;BME280;63902;52.000;5.954;2024-03-22T00:39:28;101629.13;;;10.65;90.67
67931;BME280;63902;52.000;5.954;2024-03-22T00:40:28;101630.84;;;10.66;90.17
67931;BME280;63902;52.000;5.954;2024-03-22T00:41:29;101628.16;;;10.67;90.69
67931;BME280;63902;52.000;5.954;2024-03-22T00:42:29;101624.59;;;10.68;90.83
67931;BME280;63902;52.000;5.954;2024-03-22T00:43:29;101624.56;;;10.70;91.35
67931;BME280;63902;52.000;5.954;2024-03-22T00:44:30;101623.63;;;10.71;91.38
67931;BME280;63902;52.000;5.954;2024-03-22T00:45:30;101621.06;;;10.68;91.45
67931;BME280;63902;52.000;5.954;2024-03-22T00:46:30;101615.81;;;10.66;90.94
67931;BME280;63902;52.000;5.954;2024-03-22T00:47:30;101619.19;;;10.71;90.98
67931;BME280;63902;52.000;5.954;2024-03-22T00:48:31;101608.66;;;10.70;90.83
67931;BME280;63902;52.000;5.954;2024-03-22T00:49:31;101613.84;;;10.73;90.97
67931;BME280;63902;52.000;5.954;2024-03-22T00:50:32;101606.94;;;10.67;91.83
67931;BME280;63902;52.000;5.954;2024-03-22T00:51:32;101615.56;;;10.75;91.82
67931;BME280;63902;52.000;5.954;2024-03-22T00:52:32;101614.66;;;10.75;91.97
67931;BME280;63902;52.000;5.954;2024-03-22T00:53:32;101612.94;;;10.74;91.76
67931;BME280;63902;52.000;5.954;2024-03-22T00:54:33;101617.28;;;10.77;91.55
67931;BME280;63902;52.000;5.954;2024-03-22T00:55:34;101612.00;;;10.75;91.18
67931;BME280;63902;52.000;5.954;2024-03-22T00:56:34;101610.25;;;10.75;91.91
67931;BME280;63902;52.000;5.954;2024-03-22T00:57:34;101614.66;;;10.75;93.18
67931;BME280;63902;52.000;5.954;2024-03-22T00:58:35;101614.56;;;10.78;92.38
67931;BME280;63902;52.000;5.954;2024-03-22T00:59:35;101609.34;;;10.75;92.38
67931;BME280;63902;52.000;5.954;2024-03-22T01:00:35;101604.94;;;10.75;92.11
67931;BME280;63902;52.000;5.954;2024-03-22T01:01:35;101612.81;;;10.79;94.25
67931;BME280;63902;52.000;5.954;2024-03-22T01:02:36;101606.59;;;10.78;93.45
67931;BME280;63902;52.000;5.954;2024-03-22T01:03:36;101609.25;;;10.78;93.29
67931;BME280;63902;52.000;5.954;2024-03-22T01:04:36;101606.56;;;10.80;94.50
67931;BME280;63902;52.000;5.954;2024-03-22T01:05:36;101611.03;;;10.79;93.35
67931;BME280;63902;52.000;5.954;2024-03-22T01:06:37;101611.84;;;10.81;92.81
67931;BME280;63902;52.000;5.954;2024-03-22T01:07:37;101596.97;;;10.75;92.58
67931;BME280;63902;52.000;5.954;2024-03-22T01:08:37;101596.06;;;10.77;92.50
67931;BME280;63902;52.000;5.954;2024-03-22T01:09:38;101595.13;;;10.78;92.28
67931;BME280;63902;52.000;5.954;2024-03-22T01:10:38;101588.13;;;10.75;92.30
67931;BME280;63902;52.000;5.954;2024-03-22T01:11:38;101588.13;;;10.75;92.20
67931;BME280;63902;52.000;5.954;2024-03-22T01:12:39;101588.03;;;10.78;92.38
67931;BME280;63902;52.000;5.954;2024-03-22T01:13:39;101584.47;;;10.79;92.92
67931;BME280;63902;52.000;5.954;2024-03-22T01:14:39;101581.75;;;10.81;92.68
67931;BME280;63902;52.000;5.954;2024-03-22T01:15:40;101581.84;;;10.78;92.76
67931;BME280;63902;52.000;5.954;2024-03-22T01:16:40;101583.66;;;10.77;92.97
67931;BME280;63902;52.000;5.954;2024-03-22T01:17:40;101581.00;;;10.77;92.99
67931;BME280;63902;52.000;5.954;2024-03-22T01:18:41;101583.63;;;10.79;92.75
67931;BME280;63902;52.000;5.954;2024-03-22T01:19:41;101571.31;;;10.76;92.66
67931;BME280;63902;52.000;5.954;2024-03-22T01:20:41;101574.00;;;10.74;92.57
67931;BME280;63902;52.000;5.954;2024-03-22T01:21:41;101579.28;;;10.76;92.38
67931;BME280;63902;52.000;5.954;2024-03-22T01:22:42;101573.97;;;10.76;92.43
67931;BME280;63902;52.000;5.954;2024-03-22T01:23:42;101564.34;;;10.72;92.09
67931;BME280;63902;52.000;5.954;2024-03-22T01:24:42;101566.09;;;10.73;92.55
67931;BME280;63902;52.000;5.954;2024-03-22T01:25:44;101567.84;;;10.72;92.53
67931;BME280;63902;52.000;5.954;2024-03-22T01:26:45;101566.13;;;10.71;92.37
67931;BME280;63902;52.000;5.954;2024-03-22T01:27:45;101559.97;;;10.71;92.21
67931;BME280;63902;52.000;5.954;2024-03-22T01:28:46;101560.81;;;10.71;92.66
67931;BME280;63902;52.000;5.954;2024-03-22T01:29:47;101564.34;;;10.72;92.74
67931;BME280;63902;52.000;5.954;2024-03-22T01:30:47;101563.44;;;10.73;92.60
67931;BME280;63902;52.000;5.954;2024-03-22T01:31:47;101564.25;;;10.75;93.25
67931;BME280;63902;52.000;5.954;2024-03-22T01:32:48;101554.59;;;10.72;94.21
67931;BME280;63902;52.000;5.954;2024-03-22T01:33:48;101561.69;;;10.72;95.25
67931;BME280;63902;52.000;5.954;2024-03-22T01:34:48;101566.91;;;10.75;94.42
67931;BME280;63902;52.000;5.954;2024-03-22T01:35:49;101552.84;;;10.73;93.93
67931;BME280;63902;52.000;5.954;2024-03-22T01:36:50;101558.94;;;10.75;94.35
67931;BME280;63902;52.000;5.954;2024-03-22T01:37:50;101561.59;;;10.75;93.84
67931;BME280;63902;52.000;5.954;2024-03-22T01:38:50;101559.84;;;10.75;94.18
67931;BME280;63902;52.000;5.954;2024-03-22T01:39:51;101561.59;;;10.75;93.54
67931;BME280;63902;52.000;5.954;2024-03-22T01:40:51;101547.56;;;10.71;93.65
67931;BME280;63902;52.000;5.954;2024-03-22T01:41:51;101559.03;;;10.72;92.93
67931;BME280;63902;52.000;5.954;2024-03-22T01:42:59;101552.84;;;10.71;93.33
67931;BME280;63902;52.000;5.954;2024-03-22T01:44:00;101552.97;;;10.68;93.62
67931;BME280;63902;52.000;5.954;2024-03-22T01:45:00;101558.22;;;10.70;93.66
67931;BME280;63902;52.000;5.954;2024-03-22T01:46:00;101553.06;;;10.65;93.49
67931;BME280;63902;52.000;5.954;2024-03-22T01:47:02;101554.66;;;10.71;93.67
67931;BME280;63902;52.000;5.954;2024-03-22T01:48:03;101541.50;;;10.66;93.82
67931;BME280;63902;52.000;5.954;2024-03-22T01:49:03;101558.22;;;10.70;93.80
67931;BME280;63902;52.000;5.954;2024-03-22T01:50:04;101558.22;;;10.70;94.07
67931;BME280;63902;52.000;5.954;2024-03-22T01:51:06;101553.00;;;10.67;93.79
67931;BME280;63902;52.000;5.954;2024-03-22T01:52:07;101556.47;;;10.69;94.16
67931;BME280;63902;52.000;5.954;2024-03-22T01:53:07;101552.94;;;10.70;94.50
67931;BME280;63902;52.000;5.954;2024-03-22T01:54:09;101546.72;;;10.69;94.39
67931;BME280;63902;52.000;5.954;2024-03-22T01:55:10;101551.16;;;10.69;94.01
67931;BME280;63902;52.000;5.954;2024-03-22T01:56:10;101550.31;;;10.68;94.22
67931;BME280;63902;52.000;5.954;2024-03-22T01:57:11;101552.94;;;10.70;94.60
67931;BME280;63902;52.000;5.954;2024-03-22T01:58:11;101551.13;;;10.70;94.90
67931;BME280;63902;52.000;5.954;2024-03-22T01:59:12;101550.28;;;10.70;95.63
67931;BME280;63902;52.000;5.954;2024-03-22T02:00:13;101553.78;;;10.70;94.83
67931;BME280;63902;52.000;5.954;2024-03-22T02:01:14;101552.03;;;10.69;95.00
67931;BME280;63902;52.000;5.954;2024-03-22T02:02:15;101552.84;;;10.73;95.26
67931;BME280;63902;52.000;5.954;2024-03-22T02:03:15;101547.63;;;10.70;95.34
67931;BME280;63902;52.000;5.954;2024-03-22T02:04:15;101551.94;;;10.72;94.76
67931;BME280;63902;52.000;5.954;2024-03-22T02:05:17;101545.84;;;10.69;94.60
67931;BME280;63902;52.000;5.954;2024-03-22T02:06:18;101555.59;;;10.68;94.45
67931;BME280;63902;52.000;5.954;2024-03-22T02:07:18;101546.78;;;10.68;94.78
67931;BME280;63902;52.000;5.954;2024-03-22T02:08:18;101539.78;;;10.65;94.60
67931;BME280;63902;52.000;5.954;2024-03-22T02:09:19;101552.09;;;10.68;94.66
67931;BME280;63902;52.000;5.954;2024-03-22T02:10:19;101545.00;;;10.68;94.56
67931;BME280;63902;52.000;5.954;2024-03-22T02:11:20;101536.31;;;10.63;94.15
67931;BME280;63902;52.000;5.954;2024-03-22T02:12:21;101540.66;;;10.66;94.70
67931;BME280;63902;52.000;5.954;2024-03-22T02:13:21;101540.75;;;10.63;94.45
67931;BME280;63902;52.000;5.954;2024-03-22T02:14:21;101538.00;;;10.66;94.46
67931;BME280;63902;52.000;5.954;2024-03-22T02:15:22;101528.44;;;10.60;94.65
67931;BME280;63902;52.000;5.954;2024-03-22T02:16:22;101530.16;;;10.61;94.40
67931;BME280;63902;52.000;5.954;2024-03-22T02:17:22;101525.78;;;10.60;94.39
67931;BME280;63902;52.000;5.954;2024-03-22T02:18:23;101521.34;;;10.61;94.68
67931;BME280;63902;52.000;5.954;2024-03-22T02:19:23;101510.06;;;10.54;94.78
67931;BME280;63902;52.000;5.954;2024-03-22T02:20:23;101517.91;;;10.57;95.43
67931;BME280;63902;52.000;5.954;2024-03-22T02:21:24;101524.81;;;10.63;96.24
67931;BME280;63902;52.000;5.954;2024-03-22T02:22:24;101519.63;;;10.60;95.61
67931;BME280;63902;52.000;5.954;2024-03-22T02:23:42;101518.56;;;10.65;95.36
67931;BME280;63902;52.000;5.954;2024-03-22T02:24:42;101513.28;;;10.64;95.52
67931;BME280;63902;52.000;5.954;2024-03-22T02:25:43;101517.59;;;10.68;95.18
67931;BME280;63902;52.000;5.954;2024-03-22T02:26:43;101514.09;;;10.67;95.26
67931;BME280;63902;52.000;5.954;2024-03-22T02:27:43;101510.53;;;10.67;95.15
67931;BME280;63902;52.000;5.954;2024-03-22T02:28:44;101502.69;;;10.64;94.88
67931;BME280;63902;52.000;5.954;2024-03-22T02:29:44;101510.50;;;10.68;96.62
67931;BME280;63902;52.000;5.954;2024-03-22T02:30:44;101508.72;;;10.69;97.03
67931;BME280;63902;52.000;5.954;2024-03-22T02:31:44;101499.88;;;10.70;95.72
67931;BME280;63902;52.000;5.954;2024-03-22T02:32:45;101506.78;;;10.74;95.78
67931;BME280;63902;52.000;5.954;2024-03-22T02:33:45;101507.66;;;10.74;95.89
67931;BME280;63902;52.000;5.954;2024-03-22T02:34:46;101510.31;;;10.74;96.13
67931;BME280;63902;52.000;5.954;2024-03-22T02:35:47;101505.88;;;10.75;95.82
67931;BME280;63902;52.000;5.954;2024-03-22T02:36:47;101500.56;;;10.75;95.29
67931;BME280;63902;52.000;5.954;2024-03-22T02:37:47;101501.53;;;10.72;95.21
67931;BME280;63902;52.000;5.954;2024-03-22T02:38:48;101502.44;;;10.71;95.60
67931;BME280;63902;52.000;5.954;2024-03-22T02:39:48;101498.88;;;10.72;95.51
67931;BME280;63902;52.000;5.954;2024-03-22T02:40:52;101498.84;;;10.74;95.21
67931;BME280;63902;52.000;5.954;2024-03-22T02:41:52;101491.91;;;10.70;95.10
67931;BME280;63902;52.000;5.954;2024-03-22T02:42:52;101502.41;;;10.73;95.77
67931;BME280;63902;52.000;5.954;2024-03-22T02:43:53;101498.94;;;10.71;95.47
67931;BME280;63902;52.000;5.954;2024-03-22T02:44:53;101498.88;;;10.72;96.08
67931;BME280;63902;52.000;5.954;2024-03-22T02:45:53;101490.91;;;10.72;96.85
67931;BME280;63902;52.000;5.954;2024-03-22T02:46:54;101491.84;;;10.71;96.57
67931;BME280;63902;52.000;5.954;2024-03-22T02:47:54;101482.09;;;10.72;96.07
67931;BME280;63902;52.000;5.954;2024-03-22T02:48:54;101485.66;;;10.71;95.92
67931;BME280;63902;52.000;5.954;2024-03-22T02:49:54;101480.34;;;10.71;97.16
67931;BME280;63902;52.000;5.954;2024-03-22T02:50:55;101489.06;;;10.76;96.83
67931;BME280;63902;52.000;5.954;2024-03-22T02:51:56;101480.34;;;10.71;96.31
67931;BME280;63902;52.000;5.954;2024-03-22T02:52:56;101491.72;;;10.76;97.28
67931;BME280;63902;52.000;5.954;2024-03-22T02:53:56;101480.16;;;10.77;97.99
67931;BME280;63902;52.000;5.954;2024-03-22T02:54:57;101471.28;;;10.78;97.02
67931;BME280;63902;52.000;5.954;2024-03-22T02:56:00;101478.44;;;10.76;96.85
67931;BME280;63902;52.000;5.954;2024-03-22T02:57:00;101473.06;;;10.78;96.72
67931;BME280;63902;52.000;5.954;2024-03-22T02:58:00;101476.56;;;10.78;96.27
67931;BME280;63902;52.000;5.954;2024-03-22T02:59:01;101464.34;;;10.74;96.11
67931;BME280;63902;52.000;5.954;2024-03-22T03:00:01;101459.91;;;10.74;95.55
67931;BME280;63902;52.000;5.954;2024-03-22T03:01:01;101465.19;;;10.74;95.64
67931;BME280;63902;52.000;5.954;2024-03-22T03:02:02;101468.72;;;10.75;96.95
67931;BME280;63902;52.000;5.954;2024-03-22T03:03:02;101471.34;;;10.77;96.77
67931;BME280;63902;52.000;5.954;2024-03-22T03:04:03;101459.03;;;10.74;96.84
67931;BME280;63902;52.000;5.954;2024-03-22T03:05:03;101464.25;;;10.77;97.23
67931;BME280;63902;52.000;5.954;2024-03-22T03:06:04;101458.94;;;10.77;98.11
67931;BME280;63902;52.000;5.954;2024-03-22T03:07:04;101461.59;;;10.77;97.76
67931;BME280;63902;52.000;5.954;2024-03-22T03:08:05;101453.63;;;10.77;96.87
67931;BME280;63902;52.000;5.954;2024-03-22T03:09:05;101457.22;;;10.76;96.78
67931;BME280;63902;52.000;5.954;2024-03-22T03:10:05;101455.53;;;10.73;98.98
67931;BME280;63902;52.000;5.954;2024-03-22T03:11:06;101458.09;;;10.75;98.13
67931;BME280;63902;52.000;5.954;2024-03-22T03:12:06;101452.78;;;10.75;97.36
67931;BME280;63902;52.000;5.954;2024-03-22T03:13:07;101438.00;;;10.68;96.99
67931;BME280;63902;52.000;5.954;2024-03-22T03:14:07;101453.72;;;10.74;97.08
67931;BME280;63902;52.000;5.954;2024-03-22T03:15:07;101453.72;;;10.74;98.65
67931;BME280;63902;52.000;5.954;2024-03-22T03:16:08;101441.44;;;10.71;98.03
67931;BME280;63902;52.000;5.954;2024-03-22T03:17:08;101444.03;;;10.73;97.67
67931;BME280;63902;52.000;5.954;2024-03-22T03:18:08;101439.63;;;10.72;97.18
67931;BME280;63902;52.000;5.954;2024-03-22T03:19:09;101438.84;;;10.70;97.28
67931;BME280;63902;52.000;5.954;2024-03-22T03:20:09;101435.25;;;10.71;97.04
67931;BME280;63902;52.000;5.954;2024-03-22T03:21:10;101432.53;;;10.72;96.77
67931;BME280;63902;52.000;5.954;2024-03-22T03:22:10;101435.19;;;10.72;96.53
67931;BME280;63902;52.000;5.954;2024-03-22T03:23:10;101422.03;;;10.69;96.96
67931;BME280;63902;52.000;5.954;2024-03-22T03:24:11;101423.78;;;10.70;97.33
67931;BME280;63902;52.000;5.954;2024-03-22T03:25:11;101420.19;;;10.71;97.13
67931;BME280;63902;52.000;5.954;2024-03-22T03:26:11;101415.91;;;10.67;96.99
67931;BME280;63902;52.000;5.954;2024-03-22T03:27:12;101407.13;;;10.65;97.15
67931;BME280;63902;52.000;5.954;2024-03-22T03:28:13;101414.13;;;10.68;97.08
67931;BME280;63902;52.000;5.954;2024-03-22T03:29:13;101410.63;;;10.67;96.79
67931;BME280;63902;52.000;5.954;2024-03-22T03:30:14;101414.97;;;10.70;97.04
67931;BME280;63902;52.000;5.954;2024-03-22T03:31:14;101400.97;;;10.65;96.81
67931;BME280;63902;52.000;5.954;2024-03-22T03:32:14;101407.91;;;10.69;96.65
67931;BME280;63902;52.000;5.954;2024-03-22T03:33:15;101401.84;;;10.65;96.36
67931;BME280;63902;52.000;5.954;2024-03-22T03:34:15;101399.19;;;10.65;96.85
67931;BME280;63902;52.000;5.954;2024-03-22T03:35:15;101408.00;;;10.66;97.15
67931;BME280;63902;52.000;5.954;2024-03-22T03:36:16;101409.69;;;10.68;97.24
67931;BME280;63902;52.000;5.954;2024-03-22T03:37:16;101405.31;;;10.67;97.38
67931;BME280;63902;52.000;5.954;2024-03-22T03:38:16;101406.16;;;10.68;97.09
67931;BME280;63902;52.000;5.954;2024-03-22T03:39:16;101402.66;;;10.67;97.07
67931;BME280;63902;52.000;5.954;2024-03-22T03:40:17;101407.00;;;10.70;96.98
67931;BME280;63902;52.000;5.954;2024-03-22T03:41:17;101397.28;;;10.69;97.37
67931;BME280;63902;52.000;5.954;2024-03-22T03:42:17;101394.69;;;10.67;98.24
67931;BME280;63902;52.000;5.954;2024-03-22T03:43:18;101391.16;;;10.67;97.56
67931;BME280;63902;52.000;5.954;2024-03-22T03:44:18;101397.28;;;10.69;97.76
67931;BME280;63902;52.000;5.954;2024-03-22T03:45:18;101393.78;;;10.68;97.63
67931;BME280;63902;52.000;5.954;2024-03-22T03:46:19;101393.78;;;10.68;98.05
67931;BME280;63902;52.000;5.954;2024-03-22T03:47:19;101392.91;;;10.68;97.68
67931;BME280;63902;52.000;5.954;2024-03-22T03:48:19;101391.97;;;10.69;98.24
67931;BME280;63902;52.000;5.954;2024-03-22T03:49:19;101392.84;;;10.69;97.86
67931;BME280;63902;52.000;5.954;2024-03-22T03:50:20;101394.59;;;10.70;98.29
67931;BME280;63902;52.000;5.954;2024-03-22T03:51:20;101380.53;;;10.67;98.25
67931;BME280;63902;52.000;5.954;2024-03-22T03:52:20;101383.91;;;10.72;98.26
67931;BME280;63902;52.000;5.954;2024-03-22T03:53:21;101389.22;;;10.72;97.66
67931;BME280;63902;52.000;5.954;2024-03-22T03:54:21;101387.50;;;10.71;97.79
67931;BME280;63902;52.000;5.954;2024-03-22T03:55:22;101384.78;;;10.72;98.60
67931;BME280;63902;52.000;5.954;2024-03-22T03:56:23;101383.06;;;10.71;98.00
67931;BME280;63902;52.000;5.954;2024-03-22T03:57:23;101381.25;;;10.72;98.41
67931;BME280;63902;52.000;5.954;2024-03-22T03:58:23;101383.13;;;10.70;97.90
67931;BME280;63902;52.000;5.954;2024-03-22T03:59:24;101381.25;;;10.72;97.76
67931;BME280;63902;52.000;5.954;2024-03-22T04:00:24;101364.63;;;10.67;97.56
67931;BME280;63902;52.000;5.954;2024-03-22T04:01:24;101363.81;;;10.65;97.61
67931;BME280;63902;52.000;5.954;2024-03-22T04:02:25;101364.63;;;10.67;98.35
67931;BME280;63902;52.000;5.954;2024-03-22T04:03:25;101367.19;;;10.70;98.53
67931;BME280;63902;52.000;5.954;2024-03-22T04:04:25;101364.56;;;10.70;98.52
67931;BME280;63902;52.000;5.954;2024-03-22T04:05:25;101365.34;;;10.72;97.71
67931;BME280;63902;52.000;5.954;2024-03-22T04:06:26;101367.19;;;10.70;97.36
67931;BME280;63902;52.000;5.954;2024-03-22T04:07:26;101367.19;;;10.70;97.53
67931;BME280;63902;52.000;5.954;2024-03-22T04:08:27;101366.31;;;10.69;98.20
67931;BME280;63902;52.000;5.954;2024-03-22T04:09:27;101362.75;;;10.70;98.95
67931;BME280;63902;52.000;5.954;2024-03-22T04:10:27;101352.19;;;10.69;98.47
67931;BME280;63902;52.000;5.954;2024-03-22T04:11:28;101359.25;;;10.70;98.30
67931;BME280;63902;52.000;5.954;2024-03-22T04:12:28;101361.00;;;10.69;98.07
67931;BME280;63902;52.000;5.954;2024-03-22T04:13:28;101355.69;;;10.69;98.11
67931;BME280;63902;52.000;5.954;2024-03-22T04:14:29;101350.38;;;10.69;98.69
67931;BME280;63902;52.000;5.954;2024-03-22T04:15:34;101354.72;;;10.72;98.10
67931;BME280;63902;52.000;5.954;2024-03-22T04:16:34;101360.03;;;10.72;97.91
67931;BME280;63902;52.000;5.954;2024-03-22T04:17:34;101353.09;;;10.68;97.53
67931;BME280;63902;52.000;5.954;2024-03-22T04:18:34;101351.28;;;10.70;97.71
67931;BME280;63902;52.000;5.954;2024-03-22T04:19:35;101360.03;;;10.72;98.13
67931;BME280;63902;52.000;5.954;2024-03-22T04:20:35;101363.63;;;10.71;97.95
67931;BME280;63902;52.000;5.954;2024-03-22T04:21:35;101361.00;;;10.69;98.05
67931;BME280;63902;52.000;5.954;2024-03-22T04:22:36;101363.63;;;10.71;98.23
67931;BME280;63902;52.000;5.954;2024-03-22T04:23:36;101356.59;;;10.70;99.89
67931;BME280;63902;52.000;5.954;2024-03-22T04:24:36;101366.28;;;10.71;98.75
67931;BME280;63902;52.000;5.954;2024-03-22T04:25:36;101355.75;;;10.68;98.36
67931;BME280;63902;52.000;5.954;2024-03-22T04:26:37;101355.66;;;10.71;98.17
67931;BME280;63902;52.000;5.954;2024-03-22T04:27:37;101361.00;;;10.69;98.38
67931;BME280;63902;52.000;5.954;2024-03-22T04:28:37;101362.78;;;10.69;99.04
67931;BME280;63902;52.000;5.954;2024-03-22T04:29:38;101354.84;;;10.69;98.98
67931;BME280;63902;52.000;5.954;2024-03-22T04:30:38;101345.25;;;10.65;99.08
67931;BME280;63902;52.000;5.954;2024-03-22T04:31:38;101350.38;;;10.69;99.10
67931;BME280;63902;52.000;5.954;2024-03-22T04:32:39;101355.66;;;10.71;99.00
67931;BME280;63902;52.000;5.954;2024-03-22T04:33:39;101358.31;;;10.71;98.85
67931;BME280;63902;52.000;5.954;2024-03-22T04:34:43;101359.25;;;10.70;99.01
67931;BME280;63902;52.000;5.954;2024-03-22T04:35:46;101352.25;;;10.67;99.57
67931;BME280;63902;52.000;5.954;2024-03-22T04:36:46;101346.94;;;10.67;99.39
67931;BME280;63902;52.000;5.954;2024-03-22T04:37:46;101341.63;;;10.67;98.85
67931;BME280;63902;52.000;5.954;2024-03-22T04:38:47;101347.84;;;10.66;99.71
67931;BME280;63902;52.000;5.954;2024-03-22T04:39:47;101350.47;;;10.68;100.00
67931;BME280;63902;52.000;5.954;2024-03-22T04:40:47;101346.97;;;10.66;100.00
67931;BME280;63902;52.000;5.954;2024-03-22T04:41:48;101335.66;;;10.61;100.00
67931;BME280;63902;52.000;5.954;2024-03-22T04:42:48;101348.78;;;10.65;100.00
67931;BME280;63902;52.000;5.954;2024-03-22T04:43:48;101346.94;;;10.67;100.00
67931;BME280;63902;52.000;5.954;2024-03-22T04:44:49;101352.25;;;10.67;100.00
67931;BME280;63902;52.000;5.954;2024-03-22T04:45:49;101349.63;;;10.66;100.00
67931;BME280;63902;52.000;5.954;2024-03-22T04:46:50;101344.41;;;10.64;100.00
67931;BME280;63902;52.000;5.954;2024-03-22T04:47:50;101344.41;;;10.64;99.99
67931;BME280;63902;52.000;5.954;2024-03-22T04:48:50;101337.56;;;10.56;100.00
67931;BME280;63902;52.000;5.954;2024-03-22T04:49:51;101358.53;;;10.65;100.00
67931;BME280;63902;52.000;5.954;2024-03-22T04:50:52;101350.66;;;10.62;100.00
67931;BME280;63902;52.000;5.954;2024-03-22T04:51:52;101356.75;;;10.64;100.00
67931;BME280;63902;52.000;5.954;2024-03-22T04:52:53;101353.41;;;10.59;100.00
67931;BME280;63902;52.000;5.954;2024-03-22T04:53:53;101360.44;;;10.60;100.00
67931;BME280;63902;52.000;5.954;2024-03-22T04:54:53;101347.19;;;10.60;100.00
67931;BME280;63902;52.000;5.954;2024-03-22T04:55:54;101356.88;;;10.61;99.87
67931;BME280;63902;52.000;5.954;2024-03-22T04:56:54;101347.19;;;10.60;100.00
67931;BME280;63902;52.000;5.954;2024-03-22T04:57:54;101353.31;;;10.62;100.00
67931;BME280;63902;52.000;5.954;2024-03-22T04:58:55;101347.19;;;10.60;99.63
67931;BME280;63902;52.000;5.954;2024-03-22T04:59:55;101349.84;;;10.60;99.40
67931;BME280;63902;52.000;5.954;2024-03-22T05:00:57;101352.50;;;10.60;99.21
67931;BME280;63902;52.000;5.954;2024-03-22T05:01:57;101352.50;;;10.60;99.05
67931;BME280;63902;52.000;5.954;2024-03-22T05:02:58;101348.06;;;10.60;99.42
67931;BME280;63902;52.000;5.954;2024-03-22T05:03:58;101352.53;;;10.58;99.19
67931;BME280;63902;52.000;5.954;2024-03-22T05:04:58;101346.38;;;10.58;100.00
67931;BME280;63902;52.000;5.954;2024-03-22T05:05:58;101342.88;;;10.56;99.34
67931;BME280;63902;52.000;5.954;2024-03-22T05:06:59;101333.16;;;10.56;99.30
67931;BME280;63902;52.000;5.954;2024-03-22T05:07:59;101340.22;;;10.56;99.22
67931;BME280;63902;52.000;5.954;2024-03-22T05:08:59;101342.13;;;10.52;100.00
67931;BME280;63902;52.000;5.954;2024-03-22T05:10:00;101351.78;;;10.55;100.00
67931;BME280;63902;52.000;5.954;2024-03-22T05:11:00;101352.63;;;10.55;100.00
67931;BME280;63902;52.000;5.954;2024-03-22T05:12:00;101338.66;;;10.50;99.61
67931;BME280;63902;52.000;5.954;2024-03-22T05:13:01;101351.03;;;10.49;100.00
67931;BME280;63902;52.000;5.954;2024-03-22T05:14:01;101324.00;;;10.38;100.00
67931;BME280;63902;52.000;5.954;2024-03-22T05:15:05;101342.31;;;10.46;100.00
67931;BME280;63902;52.000;5.954;2024-03-22T05:16:06;101356.34;;;10.49;100.00